createdAt,value
2018-09-25T00:00:06.909Z,70.30
2018-09-25T00:02:48.560Z,71.00
2018-09-25T00:05:30.415Z,71.30
2018-09-25T00:08:12.227Z,71.40
2018-09-25T00:10:53.949Z,72.20
2018-09-25T00:13:35.599Z,71.90
2018-09-25T00:16:17.354Z,72.30
2018-09-25T00:18:58.818Z,72.80
2018-09-25T00:21:40.340Z,74.00
2018-09-25T00:24:21.941Z,74.50
2018-09-25T00:27:03.599Z,75.70
2018-09-25T00:29:45.218Z,76.90
2018-09-25T00:32:27.005Z,77.50
2018-09-25T00:35:08.768Z,76.70
2018-09-25T00:37:50.339Z,77.30
2018-09-25T00:40:32.006Z,78.30
2018-09-25T00:43:13.834Z,78.20
2018-09-25T00:45:55.616Z,77.20
2018-09-25T00:48:37.355Z,78.20
2018-09-25T00:51:19.013Z,78.20
2018-09-25T00:54:00.660Z,77.60
2018-09-25T00:56:42.366Z,78.60
2018-09-25T00:59:24.217Z,79.60
2018-09-25T01:02:06.090Z,79.70
2018-09-25T01:04:47.608Z,77.30
2018-09-25T01:07:29.294Z,77.60
2018-09-25T01:10:11.131Z,77.40
2018-09-25T01:12:52.775Z,77.50
2018-09-25T01:15:34.523Z,77.50
2018-09-25T01:18:16.183Z,77.00
2018-09-25T01:20:57.755Z,76.90
2018-09-25T01:23:39.718Z,76.90
2018-09-25T01:26:21.429Z,76.10
2018-09-25T01:29:03.148Z,77.20
2018-09-25T01:31:44.791Z,77.90
2018-09-25T01:34:26.507Z,79.00
2018-09-25T01:37:08.275Z,79.80
2018-09-25T01:39:50.101Z,80.40
2018-09-25T01:42:31.816Z,81.40
2018-09-25T01:45:13.564Z,82.60
2018-09-25T01:47:55.708Z,83.00
2018-09-25T01:50:37.258Z,83.10
2018-09-25T01:53:18.895Z,82.80
2018-09-25T01:56:00.440Z,83.10
2018-09-25T01:58:42.659Z,82.90
2018-09-25T02:01:24.234Z,83.20
2018-09-25T02:04:05.839Z,85.30
2018-09-25T02:06:47.450Z,85.00
2018-09-25T02:09:29.112Z,85.00
2018-09-25T02:12:10.765Z,84.30
2018-09-25T02:14:52.475Z,85.00
2018-09-25T02:17:34.148Z,85.20
2018-09-25T02:20:15.967Z,85.70
2018-09-25T02:22:57.736Z,86.20
2018-09-25T02:25:39.403Z,86.10
2018-09-25T02:28:21.027Z,86.30
2018-09-25T02:31:02.914Z,87.20
2018-09-25T02:33:44.670Z,88.50
2018-09-25T02:36:26.375Z,89.50
2018-09-25T02:39:08.089Z,88.70
2018-09-25T02:41:49.828Z,88.40
2018-09-25T02:44:31.450Z,88.00
2018-09-25T02:47:13.150Z,89.60
2018-09-25T02:49:55.716Z,89.50
2018-09-25T02:52:37.364Z,89.10
2018-09-25T02:55:19.037Z,90.30
2018-09-25T02:58:00.747Z,90.50
2018-09-25T03:00:42.383Z,90.30
2018-09-25T03:03:24.067Z,90.80
2018-09-25T03:06:05.884Z,90.30
2018-09-25T03:08:47.661Z,91.60
2018-09-25T03:11:29.343Z,91.70
2018-09-25T03:14:10.919Z,91.60
2018-09-25T03:16:53.025Z,92.00
2018-09-25T03:19:34.701Z,91.40
2018-09-25T03:22:16.434Z,90.80
2018-09-25T03:24:58.332Z,91.00
2018-09-25T03:27:40.220Z,93.00
2018-09-25T03:30:21.740Z,92.20
2018-09-25T03:33:03.361Z,92.10
2018-09-25T03:35:44.893Z,92.00
2018-09-25T03:38:26.550Z,92.50
2018-09-25T03:41:08.347Z,92.20
2018-09-25T03:43:49.989Z,92.90
2018-09-25T03:46:31.593Z,93.40
2018-09-25T03:49:13.311Z,93.70
2018-09-25T03:51:55.620Z,94.20
2018-09-25T03:54:37.480Z,93.80
2018-09-25T03:57:19.230Z,94.50
2018-09-25T04:00:00.720Z,94.80
2018-09-25T04:02:42.398Z,94.60
2018-09-25T04:05:24.122Z,94.80
2018-09-25T04:08:05.951Z,95.00
2018-09-25T04:10:47.697Z,95.00
2018-09-25T04:13:29.335Z,95.30
2018-09-25T04:16:10.935Z,95.80
2018-09-25T04:18:52.636Z,96.20
2018-09-25T04:21:33.969Z,96.00
2018-09-25T04:24:15.560Z,95.70
2018-09-25T04:26:57.144Z,96.70
2018-09-25T04:29:38.743Z,97.20
2018-09-25T04:32:20.548Z,97.60
2018-09-25T04:35:02.204Z,97.50
2018-09-25T04:37:43.827Z,97.60
2018-09-25T04:40:25.623Z,97.80
2018-09-25T04:43:07.273Z,97.60
2018-09-25T04:45:48.900Z,97.30
2018-09-25T04:48:30.720Z,96.90
2018-09-25T04:51:12.356Z,96.90
2018-09-25T04:53:54.079Z,96.10
2018-09-25T04:56:35.695Z,96.30
2018-09-25T04:59:17.476Z,96.30
2018-09-25T05:01:58.953Z,96.00
2018-09-25T05:04:40.671Z,95.90
2018-09-25T05:07:22.375Z,96.20
2018-09-25T05:10:04.067Z,96.70
2018-09-25T05:12:45.953Z,96.70
2018-09-25T05:15:32.481Z,97.60
2018-09-25T05:18:14.054Z,96.90
2018-09-25T05:20:55.723Z,96.50
2018-09-25T05:23:37.208Z,96.60
2018-09-25T05:26:18.994Z,96.70
2018-09-25T05:29:01.036Z,96.70
2018-09-25T05:31:42.785Z,96.60
2018-09-25T05:34:24.707Z,97.40
2018-09-25T05:37:08.656Z,97.30
2018-09-25T05:39:50.537Z,97.50
2018-09-25T05:42:32.352Z,96.90
2018-09-25T05:45:14.052Z,96.80
2018-09-25T05:47:55.694Z,96.70
2018-09-25T05:50:37.395Z,97.20
2018-09-25T05:53:19.133Z,96.50
2018-09-25T05:56:00.623Z,96.10
2018-09-25T05:58:42.317Z,94.60
2018-09-25T06:01:24.391Z,88.50
2018-09-25T06:04:06.664Z,87.10
2018-09-25T06:06:48.525Z,85.90
2018-09-25T06:09:30.397Z,83.80
2018-09-25T06:12:12.341Z,77.60
2018-09-25T06:14:53.862Z,78.40
2018-09-25T06:17:35.558Z,77.40
2018-09-25T06:20:18.759Z,71.90
2018-09-25T06:23:00.458Z,68.20
2018-09-25T06:25:43.019Z,66.60
2018-09-25T06:28:24.519Z,69.80
2018-09-25T06:31:06.158Z,68.60
2018-09-25T06:56:06.550Z,57.60
2018-09-25T06:58:55.197Z,57.30
2018-09-25T07:01:36.785Z,58.70
2018-09-25T07:04:18.463Z,55.10
2018-09-25T07:07:00.268Z,54.30
2018-09-25T07:09:42.020Z,53.30
2018-09-25T07:12:23.564Z,53.10
2018-09-25T07:15:05.173Z,52.80
2018-09-25T07:17:46.789Z,52.20
2018-09-25T07:20:28.365Z,49.50
2018-09-25T07:23:09.974Z,51.00
2018-09-25T07:25:51.578Z,50.70
2018-09-25T07:28:33.347Z,51.90
2018-09-25T07:31:15.157Z,49.00
2018-09-25T07:33:56.737Z,47.40
2018-09-25T07:36:38.375Z,45.10
2018-09-25T07:39:20.016Z,42.30
2018-09-25T07:42:01.650Z,41.90
2018-09-25T07:44:43.379Z,41.80
2018-09-25T07:47:24.779Z,41.50
2018-09-25T07:50:06.399Z,38.20
2018-09-25T07:52:47.961Z,37.30
2018-09-25T07:55:29.583Z,37.80
2018-09-25T07:58:11.209Z,39.70
2018-09-25T08:00:52.838Z,39.50
2018-09-25T08:03:34.514Z,39.80
2018-09-25T08:06:16.152Z,41.50
2018-09-25T08:08:57.820Z,39.40
2018-09-25T08:11:39.386Z,38.90
2018-09-25T08:14:21.077Z,37.40
2018-09-25T08:17:02.660Z,39.10
2018-09-25T08:19:44.251Z,38.90
2018-09-25T08:22:25.933Z,41.70
2018-09-25T08:25:07.642Z,42.70
2018-09-25T08:27:49.205Z,41.90
2018-09-25T08:30:30.768Z,43.10
2018-09-25T08:33:12.581Z,41.90
2018-09-25T08:35:54.157Z,40.00
2018-09-25T08:38:36.795Z,39.40
2018-09-25T08:41:18.245Z,39.90
2018-09-25T08:43:59.943Z,37.40
2018-09-25T08:46:41.440Z,38.70
2018-09-25T08:49:22.904Z,38.30
2018-09-25T08:52:04.590Z,38.60
2018-09-25T08:54:46.189Z,38.10
2018-09-25T08:57:27.739Z,38.40
2018-09-25T09:00:09.448Z,37.60
2018-09-25T09:02:51.132Z,36.50
2018-09-25T09:05:32.797Z,37.10
2018-09-25T09:08:15.116Z,38.20
2018-09-25T09:10:56.693Z,37.80
2018-09-25T09:13:38.436Z,38.60
2018-09-25T09:16:21.158Z,37.40
2018-09-25T09:19:02.762Z,38.10
2018-09-25T09:21:44.332Z,37.80
2018-09-25T09:24:26.130Z,38.60
2018-09-25T09:27:07.628Z,39.70
2018-09-25T09:29:49.358Z,38.50
2018-09-25T09:32:30.922Z,37.10
2018-09-25T09:35:13.014Z,35.70
2018-09-25T09:37:54.609Z,36.80
2018-09-25T09:40:36.542Z,37.30
2018-09-25T09:43:18.048Z,36.50
2018-09-25T09:45:59.940Z,36.50
2018-09-25T09:48:41.571Z,36.20
2018-09-25T09:51:23.051Z,36.00
2018-09-25T09:54:04.846Z,33.90
2018-09-25T09:56:46.655Z,33.20
2018-09-25T09:59:28.332Z,35.40
2018-09-25T10:02:10.034Z,36.70
2018-09-25T10:04:51.919Z,36.60
2018-09-25T10:07:33.584Z,36.40
2018-09-25T10:10:15.147Z,34.30
2018-09-25T10:12:56.845Z,34.20
2018-09-25T10:15:38.533Z,33.70
2018-09-25T10:18:20.180Z,32.30
2018-09-25T10:21:01.631Z,30.40
2018-09-25T10:23:43.260Z,32.80
2018-09-25T10:26:25.820Z,31.70
2018-09-25T10:29:07.616Z,32.90
2018-09-25T10:31:49.235Z,29.00
2018-09-25T10:34:31.288Z,29.70
2018-09-25T10:37:13.015Z,31.00
2018-09-25T10:39:54.521Z,32.20
2018-09-25T10:42:36.557Z,28.30
2018-09-25T10:45:18.385Z,29.30
2018-09-25T10:48:00.315Z,31.00
2018-09-25T10:50:41.894Z,29.90
2018-09-25T10:53:24.046Z,29.30
2018-09-25T10:56:06.601Z,29.30
2018-09-25T10:58:48.166Z,29.50
2018-09-25T11:01:29.800Z,26.40
2018-09-25T11:04:11.132Z,29.40
2018-09-25T11:06:52.695Z,30.00
2018-09-25T11:09:34.305Z,26.20
2018-09-25T11:12:16.200Z,27.40
2018-09-25T11:14:57.885Z,25.80
2018-09-25T11:17:39.476Z,26.30
2018-09-25T11:20:21.140Z,24.20
2018-09-25T11:23:02.779Z,29.90
2018-09-25T11:25:44.391Z,28.10
2018-09-25T11:28:27.240Z,27.80
2018-09-25T11:31:09.301Z,26.10
2018-09-25T11:33:51.405Z,26.60
2018-09-25T11:36:33.292Z,29.40
2018-09-25T11:39:15.312Z,28.50
2018-09-25T11:41:56.896Z,29.80
2018-09-25T11:44:38.454Z,28.00
2018-09-25T11:47:19.904Z,29.30
2018-09-25T11:50:01.763Z,28.50
2018-09-25T11:52:43.761Z,28.30
2018-09-25T11:55:25.397Z,28.50
2018-09-25T11:58:06.852Z,27.30
2018-09-25T12:00:49.059Z,26.30
2018-09-25T12:03:30.620Z,25.20
2018-09-25T12:06:12.074Z,28.10
2018-09-25T12:08:53.623Z,26.20
2018-09-25T12:11:35.370Z,26.00
2018-09-25T12:14:17.186Z,27.40
2018-09-25T12:16:58.894Z,27.70
2018-09-25T12:19:40.841Z,28.20
2018-09-25T12:22:22.212Z,28.50
2018-09-25T12:25:04.034Z,27.70
2018-09-25T12:27:45.883Z,27.50
2018-09-25T12:30:27.302Z,27.90
2018-09-25T12:33:08.995Z,28.50
2018-09-25T12:35:50.732Z,28.30
2018-09-25T12:38:32.410Z,29.30
2018-09-25T12:41:15.009Z,28.00
2018-09-25T12:43:56.505Z,28.10
2018-09-25T12:46:38.083Z,28.80
2018-09-25T12:49:19.676Z,29.80
2018-09-25T12:52:01.359Z,30.00
2018-09-25T12:54:42.947Z,30.00
2018-09-25T12:57:24.521Z,31.10
2018-09-25T13:00:06.065Z,30.30
2018-09-25T13:02:47.703Z,28.40
2018-09-25T13:05:29.356Z,28.60
2018-09-25T13:08:11.494Z,29.30
2018-09-25T13:10:53.483Z,29.00
2018-09-25T13:13:35.312Z,32.00
2018-09-25T13:16:17.022Z,30.80
2018-09-25T13:18:58.641Z,30.80
2018-09-25T13:21:40.319Z,30.40
2018-09-25T13:24:21.770Z,31.90
2018-09-25T13:27:03.545Z,32.90
2018-09-25T13:29:45.062Z,32.30
2018-09-25T13:32:26.847Z,32.90
2018-09-25T13:35:08.321Z,33.30
2018-09-25T13:37:49.980Z,34.20
2018-09-25T13:40:31.796Z,33.10
2018-09-25T13:43:13.495Z,33.30
2018-09-25T13:45:55.030Z,30.20
2018-09-25T13:48:36.568Z,31.80
2018-09-25T13:51:18.164Z,32.20
2018-09-25T13:53:59.670Z,32.00
2018-09-25T13:56:42.430Z,32.20
2018-09-25T13:59:24.224Z,31.50
2018-09-25T14:02:06.038Z,31.80
2018-09-25T14:04:47.621Z,31.00
2018-09-25T14:07:29.213Z,31.10
2018-09-25T14:10:11.175Z,31.70
2018-09-25T14:12:52.899Z,32.40
2018-09-25T14:15:34.688Z,32.00
2018-09-25T14:18:17.000Z,31.50
2018-09-25T14:20:58.627Z,30.90
2018-09-25T14:23:40.249Z,30.70
2018-09-25T14:26:22.068Z,30.50
2018-09-25T14:29:04.226Z,30.50
2018-09-25T14:31:45.895Z,31.20
2018-09-25T14:34:27.512Z,31.00
2018-09-25T14:37:09.214Z,32.40
2018-09-25T14:39:51.009Z,32.40
2018-09-25T14:42:32.768Z,31.20
2018-09-25T14:45:14.498Z,32.10
2018-09-25T14:47:56.196Z,33.30
2018-09-25T14:50:37.827Z,35.40
2018-09-25T14:53:19.395Z,35.40
2018-09-25T14:56:01.224Z,34.90
2018-09-25T14:58:42.915Z,36.20
2018-09-25T15:01:24.671Z,35.80
2018-09-25T15:04:06.528Z,35.70
2018-09-25T15:06:48.142Z,35.70
2018-09-25T15:09:29.850Z,34.70
2018-09-25T15:12:11.452Z,34.70
2018-09-25T15:14:53.053Z,34.80
2018-09-25T15:17:34.496Z,34.50
2018-09-25T15:20:16.464Z,35.50
2018-09-25T15:22:58.033Z,36.70
2018-09-25T15:25:39.643Z,37.30
2018-09-25T15:28:21.202Z,36.70
2018-09-25T15:31:02.767Z,33.50
2018-09-25T15:33:44.535Z,34.50
2018-09-25T15:36:26.343Z,34.40
2018-09-25T15:39:07.888Z,34.70
2018-09-25T15:41:49.756Z,34.50
2018-09-25T15:44:32.138Z,34.40
2018-09-25T15:47:13.996Z,34.90
2018-09-25T15:49:55.551Z,35.20
2018-09-25T15:52:37.594Z,35.40
2018-09-25T15:55:19.033Z,35.20
2018-09-25T15:58:00.640Z,36.00
2018-09-25T16:00:43.324Z,36.70
2018-09-25T16:03:24.924Z,37.40
2018-09-25T16:06:07.114Z,37.30
2018-09-25T16:08:48.778Z,37.60
2018-09-25T16:11:30.471Z,38.10
2018-09-25T16:14:12.376Z,37.90
2018-09-25T16:16:53.971Z,38.00
2018-09-25T16:19:35.563Z,38.00
2018-09-25T16:22:17.200Z,39.00
2018-09-25T16:24:58.769Z,39.20
2018-09-25T16:27:40.368Z,39.80
2018-09-25T16:30:22.076Z,39.20
2018-09-25T16:33:03.641Z,38.10
2018-09-25T16:35:45.225Z,36.70
2018-09-25T16:38:26.963Z,36.80
2018-09-25T16:41:08.757Z,37.30
2018-09-25T16:43:50.365Z,37.00
2018-09-25T16:46:32.104Z,37.50
2018-09-25T16:49:13.776Z,38.20
2018-09-25T16:51:55.367Z,38.80
2018-09-25T16:54:36.825Z,38.80
2018-09-25T16:57:18.532Z,38.90
2018-09-25T17:00:00.013Z,39.70
2018-09-25T17:02:41.923Z,39.00
2018-09-25T17:05:23.548Z,39.60
2018-09-25T17:08:05.206Z,39.90
2018-09-25T17:10:46.943Z,40.50
2018-09-25T17:13:28.543Z,40.70
2018-09-25T17:16:10.249Z,40.90
2018-09-25T17:18:51.948Z,40.70
2018-09-25T17:21:34.613Z,41.40
2018-09-25T17:24:16.203Z,41.40
2018-09-25T17:26:57.786Z,42.00
2018-09-25T17:29:39.377Z,43.20
2018-09-25T17:32:20.942Z,44.30
2018-09-25T17:35:02.509Z,44.70
2018-09-25T17:37:44.261Z,44.70
2018-09-25T17:40:25.948Z,45.90
2018-09-25T17:43:07.479Z,47.10
2018-09-25T17:45:49.189Z,47.30
2018-09-25T17:48:30.783Z,46.90
2018-09-25T17:51:12.467Z,47.50
2018-09-25T17:53:54.053Z,49.30
2018-09-25T17:56:35.726Z,49.30
2018-09-25T17:59:17.663Z,51.40
2018-09-25T18:01:59.405Z,51.40
2018-09-25T18:04:41.284Z,51.50
2018-09-25T18:07:22.959Z,50.50
2018-09-25T18:10:04.603Z,50.50
2018-09-25T18:12:47.650Z,50.50
2018-09-25T18:15:29.674Z,50.60
2018-09-25T18:18:11.392Z,51.20
2018-09-25T18:20:53.071Z,51.40
2018-09-25T18:23:34.789Z,53.30
2018-09-25T18:26:16.878Z,55.30
2018-09-25T18:28:58.484Z,55.70
2018-09-25T18:31:40.235Z,57.10
2018-09-25T18:34:22.161Z,58.30
2018-09-25T18:37:03.942Z,57.40
2018-09-25T18:39:45.511Z,58.20
2018-09-25T18:42:27.472Z,58.20
2018-09-25T18:45:09.171Z,59.10
2018-09-25T18:47:51.781Z,59.50
2018-09-25T18:50:34.237Z,59.70
2018-09-25T18:53:15.743Z,58.90
2018-09-25T18:55:57.431Z,59.00
2018-09-25T18:58:39.030Z,57.70
2018-09-25T19:01:20.544Z,59.70
2018-09-25T19:04:02.294Z,61.50
2018-09-25T19:06:43.803Z,63.10
2018-09-25T19:09:25.351Z,62.80
2018-09-25T19:12:06.946Z,63.70
2018-09-25T19:14:49.292Z,64.80
2018-09-25T19:17:31.011Z,64.30
2018-09-25T19:20:12.685Z,61.10
2018-09-25T19:22:54.310Z,61.10
2018-09-25T19:25:35.909Z,61.70
2018-09-25T19:28:17.681Z,61.60
2018-09-25T19:30:59.312Z,63.20
2018-09-25T19:33:41.089Z,62.80
2018-09-25T19:36:22.670Z,63.20
2018-09-25T19:39:04.476Z,64.30
2018-09-25T19:41:46.118Z,63.40
2018-09-25T19:44:27.715Z,64.50
2018-09-25T19:47:09.431Z,63.70
2018-09-25T19:49:51.086Z,63.70
2018-09-25T19:52:32.674Z,64.80
2018-09-25T19:55:14.257Z,65.80
2018-09-25T19:57:55.843Z,66.00
2018-09-25T20:00:37.402Z,67.10
2018-09-25T20:03:19.099Z,68.10
2018-09-25T20:06:07.803Z,69.60
2018-09-25T20:08:50.199Z,67.50
2018-09-25T20:11:31.746Z,66.20
2018-09-25T20:14:13.822Z,66.80
2018-09-25T20:16:55.456Z,67.20
2018-09-25T20:19:37.260Z,66.20
2018-09-25T20:22:18.791Z,65.40
2018-09-25T20:25:00.258Z,67.50
2018-09-25T20:27:41.765Z,67.10
2018-09-25T20:30:23.344Z,67.00
2018-09-25T20:33:04.893Z,66.80
2018-09-25T20:35:46.396Z,67.70
2018-09-25T20:38:27.834Z,68.80
2018-09-25T20:41:09.441Z,67.90
2018-09-25T20:43:51.645Z,66.20
2018-09-25T20:46:33.188Z,67.70
2018-09-25T20:49:15.012Z,68.40
2018-09-25T20:51:56.614Z,70.10
2018-09-25T20:54:38.094Z,69.60
2018-09-25T20:57:19.782Z,70.90
2018-09-25T21:00:01.279Z,71.10
2018-09-25T21:02:42.996Z,71.00
2018-09-25T21:05:24.666Z,71.50
2018-09-25T21:08:06.234Z,71.10
2018-09-25T21:10:47.819Z,73.00
2018-09-25T21:13:29.422Z,72.50
2018-09-25T21:16:10.971Z,73.20
2018-09-25T21:18:52.571Z,74.70
2018-09-25T21:21:34.155Z,75.70
2018-09-25T21:24:15.759Z,74.30
2018-09-25T21:26:57.353Z,74.60
2018-09-25T21:29:39.118Z,75.30
2018-09-25T21:32:20.900Z,74.80
2018-09-25T21:35:02.497Z,73.60
2018-09-25T21:37:43.965Z,73.80
2018-09-25T21:40:25.694Z,75.50
2018-09-25T21:43:07.467Z,75.60
2018-09-25T21:45:49.122Z,75.70
2018-09-25T21:48:31.026Z,77.00
2018-09-25T21:51:13.046Z,75.70
2018-09-25T21:53:54.418Z,76.30
2018-09-25T21:56:36.036Z,75.60
2018-09-25T21:59:17.726Z,75.40
2018-09-25T22:02:02.486Z,76.30
2018-09-25T22:04:44.204Z,75.70
2018-09-25T22:07:25.652Z,75.70
2018-09-25T22:10:07.083Z,75.60
2018-09-25T22:12:48.560Z,75.00
2018-09-25T22:15:30.746Z,74.50
2018-09-25T22:18:12.328Z,74.20
2018-09-25T22:20:53.925Z,74.80
2018-09-25T22:23:35.482Z,75.00
2018-09-25T22:26:17.340Z,75.90
2018-09-25T22:28:58.880Z,76.00
2018-09-25T22:31:40.475Z,75.10
2018-09-25T22:34:22.058Z,74.70
2018-09-25T22:37:03.617Z,74.90
2018-09-25T22:39:45.233Z,75.10
2018-09-25T22:42:26.789Z,76.00
2018-09-25T22:45:08.340Z,76.10
2018-09-25T22:47:50.446Z,77.60
2018-09-25T22:50:32.010Z,78.70
2018-09-25T22:53:13.630Z,77.80
2018-09-25T22:55:55.143Z,77.80
2018-09-25T22:58:36.763Z,78.20
2018-09-25T23:01:18.413Z,78.70
2018-09-25T23:04:00.114Z,78.50
2018-09-25T23:06:41.590Z,79.20
2018-09-25T23:09:23.407Z,78.60
2018-09-25T23:12:04.762Z,78.40
2018-09-25T23:14:46.414Z,78.10
2018-09-25T23:17:27.909Z,78.80
2018-09-25T23:20:09.541Z,78.90
2018-09-25T23:22:51.168Z,79.60
2018-09-25T23:25:32.873Z,79.00
2018-09-25T23:28:14.421Z,78.40
2018-09-25T23:30:56.272Z,79.10
2018-09-25T23:33:37.911Z,79.00
2018-09-25T23:36:19.608Z,78.80
2018-09-25T23:39:09.724Z,79.30
2018-09-25T23:41:51.297Z,78.90
2018-09-25T23:44:32.600Z,79.10
2018-09-25T23:47:27.905Z,79.60
2018-09-25T23:50:11.660Z,79.40
2018-09-25T23:52:54.918Z,80.10
2018-09-25T23:56:07.774Z,80.20
2018-09-25T23:58:49.368Z,80.20
